Time;durP1;ratioP1;P1;durP2;ratioP2;P2;SDS_P1;SDS_P2;PMS_P1;PMS_P2;Temp;Humidity;BMP_temperature;BMP_pressure;BME280_temperature;BME280_humidity;BME280_pressure;Samples;Min_cycle;Max_cycle;Signal;HPM_P1;HPM_P2
2023/01/02 00:00:27;;;;;;;9.48;6.30;;;10.90;99.90;;;;;;5086757;28;20046;-61
2023/01/02 00:02:52;;;;;;;12.00;6.35;;;11.00;99.90;;;;;;5090794;28;20032;-60
2023/01/02 00:05:18;;;;;;;9.88;5.80;;;10.90;99.90;;;;;;5088158;28;20494;-61
2023/01/02 00:07:43;;;;;;;11.07;6.75;;;11.00;99.90;;;;;;5089709;28;20119;-61
2023/01/02 00:10:09;;;;;;;13.48;6.32;;;11.10;99.90;;;;;;5086813;28;20047;-60
2023/01/02 00:12:35;;;;;;;11.23;7.35;;;10.90;99.90;;;;;;5089583;28;20036;-60
2023/01/02 00:15:01;;;;;;;12.27;7.32;;;10.90;99.90;;;;;;5090213;28;20093;-60
2023/01/02 00:17:27;;;;;;;10.57;7.35;;;10.90;99.90;;;;;;5089757;28;20040;-62
2023/01/02 00:19:53;;;;;;;11.10;7.32;;;10.90;99.90;;;;;;5051833;28;20415;-61
2023/01/02 00:22:38;;;;;;;12.20;7.88;;;10.90;99.90;;;;;;5088684;28;20071;-63
2023/01/02 00:25:04;;;;;;;11.85;7.55;;;11.10;99.90;;;;;;5088033;28;20440;-62
2023/01/02 00:27:38;;;;;;;11.85;7.90;;;11.00;99.90;;;;;;5085799;28;20043;-64
2023/01/02 00:30:05;;;;;;;13.07;8.00;;;11.00;99.90;;;;;;5086015;28;20406;-61
2023/01/02 00:32:30;;;;;;;11.52;7.50;;;11.10;99.90;;;;;;5070479;28;20028;-61
2023/01/02 00:34:56;;;;;;;13.85;8.25;;;11.00;99.90;;;;;;5090146;28;20040;-62
2023/01/02 00:37:21;;;;;;;14.65;7.93;;;11.10;99.90;;;;;;5070949;28;20080;-61
2023/01/02 00:39:47;;;;;;;12.70;8.65;;;11.10;99.90;;;;;;5086586;28;20148;-62
2023/01/02 00:42:12;;;;;;;14.25;8.60;;;11.10;99.90;;;;;;5085065;28;20345;-66
2023/01/02 00:44:38;;;;;;;10.90;7.97;;;11.00;99.90;;;;;;5089605;28;20458;-64
2023/01/02 00:47:03;;;;;;;13.15;8.10;;;11.10;99.90;;;;;;5087422;28;20060;-63
2023/01/02 00:49:29;;;;;;;14.60;8.65;;;11.00;99.90;;;;;;5089047;28;20055;-63
2023/01/02 00:51:54;;;;;;;14.32;8.48;;;11.10;99.90;;;;;;5089361;28;20040;-63
2023/01/02 00:54:20;;;;;;;16.58;8.82;;;11.00;99.90;;;;;;5088560;28;20045;-61
2023/01/02 00:56:45;;;;;;;13.25;8.65;;;11.10;99.90;;;;;;5088256;28;20067;-63
2023/01/02 00:59:11;;;;;;;14.25;8.50;;;11.00;99.90;;;;;;5083842;28;20032;-62
2023/01/02 01:01:37;;;;;;;14.48;8.82;;;11.10;99.90;;;;;;5091239;28;20028;-62
2023/01/02 01:04:02;;;;;;;15.90;9.43;;;11.10;99.90;;;;;;5089876;28;20114;-60
2023/01/02 01:06:30;;;;;;;14.93;8.80;;;11.20;99.90;;;;;;5087608;28;20348;-62
2023/01/02 01:08:55;;;;;;;15.82;9.10;;;11.10;99.90;;;;;;5085183;28;20059;-62
2023/01/02 01:11:21;;;;;;;15.20;9.45;;;11.10;99.90;;;;;;5087813;28;20037;-61
2023/01/02 01:13:47;;;;;;;16.25;9.43;;;11.00;99.90;;;;;;5087436;28;20044;-63
2023/01/02 01:16:16;;;;;;;16.13;9.63;;;11.20;99.90;;;;;;5037058;28;20028;-61
2023/01/02 01:18:42;;;;;;;16.10;10.40;;;11.00;99.90;;;;;;5037308;28;20363;-62
2023/01/02 01:21:11;;;;;;;17.90;9.82;;;11.10;99.90;;;;;;5085650;28;20036;-62
2023/01/02 01:23:36;;;;;;;15.13;9.85;;;11.20;99.90;;;;;;5088234;28;20029;-62
2023/01/02 01:26:07;;;;;;;16.05;10.50;;;11.20;99.90;;;;;;5069495;28;20126;-63
2023/01/02 01:28:40;;;;;;;16.08;10.05;;;11.20;99.90;;;;;;5087960;28;20036;-63
2023/01/02 01:31:08;;;;;;;20.13;10.70;;;11.20;99.90;;;;;;5092401;28;20046;-61
2023/01/02 01:33:34;;;;;;;15.82;9.38;;;11.10;99.90;;;;;;5088017;28;20035;-62
2023/01/02 01:36:12;;;;;;;15.30;9.80;;;11.20;99.90;;;;;;5090908;28;20376;-63
2023/01/02 01:38:38;;;;;;;17.88;9.90;;;11.10;99.90;;;;;;5089317;28;20036;-63
2023/01/02 01:41:05;;;;;;;15.73;9.85;;;11.20;99.90;;;;;;5091281;28;20492;-63
2023/01/02 01:43:44;;;;;;;15.13;9.05;;;11.10;99.90;;;;;;5098789;28;20107;-63
2023/01/02 01:46:34;;;;;;;14.48;8.98;;;11.20;99.90;;;;;;5099127;28;20050;-63
2023/01/02 01:49:04;;;;;;;15.48;9.35;;;11.10;99.90;;;;;;5091272;28;20179;-61
2023/01/02 01:51:34;;;;;;;15.63;9.10;;;11.20;99.90;;;;;;5090837;28;20427;-62
2023/01/02 01:54:09;;;;;;;14.15;8.30;;;11.30;99.90;;;;;;5091493;28;20068;-61
2023/01/02 01:56:44;;;;;;;14.20;9.50;;;11.10;99.90;;;;;;5089240;28;20040;-61
2023/01/02 01:59:10;;;;;;;14.82;9.02;;;11.10;99.90;;;;;;5089264;28;20032;-62
2023/01/02 02:01:38;;;;;;;20.73;9.50;;;11.10;99.90;;;;;;5096518;28;20036;-62
2023/01/02 02:04:04;;;;;;;15.95;8.90;;;11.20;99.90;;;;;;5093065;28;20119;-61
2023/01/02 02:06:29;;;;;;;16.20;8.90;;;11.30;99.90;;;;;;5075287;28;20119;-61
2023/01/02 02:09:01;;;;;;;16.38;9.57;;;11.30;99.90;;;;;;5089331;28;20047;-61
2023/01/02 02:11:27;;;;;;;14.23;8.57;;;11.30;99.90;;;;;;5095013;28;20119;-62
2023/01/02 02:13:57;;;;;;;16.02;8.48;;;11.30;99.90;;;;;;5089704;28;20521;-62
2023/01/02 02:16:47;;;;;;;14.50;8.15;;;11.20;99.90;;;;;;5094477;28;20073;-62
2023/01/02 02:19:40;;;;;;;16.08;8.40;;;11.30;99.90;;;;;;5085536;28;20048;-63
2023/01/02 02:22:20;;;;;;;14.52;7.78;;;11.20;99.90;;;;;;5086104;28;20504;-61
2023/01/02 02:25:08;;;;;;;13.07;8.05;;;11.30;99.90;;;;;;5087125;28;20124;-61
2023/01/02 02:28:23;;;;;;;14.30;8.50;;;11.30;99.90;;;;;;5086057;28;20051;-61
2023/01/02 02:31:01;;;;;;;15.20;7.78;;;11.20;99.90;;;;;;5090411;28;20078;-64
2023/01/02 02:33:38;;;;;;;18.08;7.93;;;11.30;99.90;;;;;;5090501;28;20102;-63
2023/01/02 02:36:22;;;;;;;13.38;8.05;;;11.20;99.90;;;;;;5068427;28;20051;-61
2023/01/02 02:39:29;;;;;;;14.10;8.27;;;11.20;99.90;;;;;;5091665;28;20094;-61
2023/01/02 02:41:57;;;;;;;15.27;7.72;;;11.30;99.90;;;;;;5084136;28;20040;-61
2023/01/02 02:45:17;;;;;;;11.18;7.20;;;11.40;99.90;;;;;;5094715;28;20039;-61
2023/01/02 02:48:04;;;;;;;12.40;7.60;;;11.30;99.90;;;;;;5083111;28;20130;-61
2023/01/02 02:50:45;;;;;;;14.18;8.13;;;11.50;99.90;;;;;;5087934;28;20040;-63
2023/01/02 02:53:23;;;;;;;12.00;7.88;;;11.40;99.90;;;;;;5096168;28;20044;-61
2023/01/02 02:55:58;;;;;;;12.35;7.43;;;11.40;99.90;;;;;;5090276;28;20128;-63
2023/01/02 02:58:26;;;;;;;13.55;7.43;;;11.30;99.90;;;;;;5092166;28;20036;-65
2023/01/02 03:01:14;;;;;;;14.65;7.43;;;11.30;99.90;;;;;;5088521;28;20039;-62
2023/01/02 03:03:40;;;;;;;14.40;7.38;;;11.40;99.90;;;;;;5089419;28;20028;-62
2023/01/02 03:06:14;;;;;;;14.10;7.63;;;11.40;99.90;;;;;;5089382;28;20363;-61
2023/01/02 03:08:49;;;;;;;14.00;7.47;;;11.40;99.90;;;;;;5087599;28;20120;-62
2023/01/02 03:11:15;;;;;;;12.95;7.40;;;11.50;99.90;;;;;;5088175;28;20040;-63
2023/01/02 03:14:01;;;;;;;16.40;8.00;;;11.30;99.90;;;;;;5088351;28;20082;-62
2023/01/02 03:16:39;;;;;;;15.63;8.43;;;11.60;99.90;;;;;;5087285;28;20466;-61
2023/01/02 03:19:21;;;;;;;14.57;7.90;;;11.40;99.90;;;;;;5087833;28;20570;-62
2023/01/02 03:21:59;;;;;;;16.73;8.48;;;11.60;99.90;;;;;;5087949;28;20028;-62
2023/01/02 03:24:33;;;;;;;12.02;7.63;;;11.60;99.90;;;;;;5089345;28;20127;-62
2023/01/02 03:27:06;;;;;;;;;;;11.40;99.90;;;;;;5096451;28;20062;-61
2023/01/02 03:30:06;;;;;;;17.92;7.85;;;11.50;99.90;;;;;;5096245;28;19970;-63
2023/01/02 03:32:42;;;;;;;15.80;8.48;;;11.50;99.90;;;;;;5099481;28;20253;-63
2023/01/02 03:35:14;;;;;;;16.23;8.40;;;11.50;99.90;;;;;;5099964;28;20114;-64
2023/01/02 03:38:04;;;;;;;16.92;9.30;;;11.40;99.90;;;;;;5096554;28;20033;-61
2023/01/02 03:40:43;;;;;;;15.93;8.05;;;11.40;99.90;;;;;;5093929;28;20044;-61
2023/01/02 03:43:14;;;;;;;13.40;7.65;;;11.30;99.90;;;;;;5099155;28;20472;-63
2023/01/02 03:45:47;;;;;;;14.13;8.27;;;11.50;99.90;;;;;;5080319;28;20055;-63
2023/01/02 03:48:38;;;;;;;18.25;8.82;;;11.30;99.90;;;;;;5100322;28;20048;-64
2023/01/02 03:51:04;;;;;;;15.65;8.32;;;11.50;99.90;;;;;;5070183;28;20388;-64
2023/01/02 03:53:32;;;;;;;17.33;8.45;;;11.40;99.90;;;;;;5097023;28;20039;-63
2023/01/02 03:56:08;;;;;;;13.00;8.50;;;11.30;99.90;;;;;;5100828;28;20044;-62
2023/01/02 03:58:58;;;;;;;14.90;8.05;;;11.40;99.90;;;;;;5097065;28;20060;-62
2023/01/02 04:01:33;;;;;;;15.85;8.32;;;11.50;99.90;;;;;;5096800;28;20039;-59
2023/01/02 04:04:11;;;;;;;18.30;8.32;;;11.50;99.90;;;;;;5096354;28;20039;-63
2023/01/02 04:06:41;;;;;;;16.98;8.35;;;11.40;99.90;;;;;;5098169;28;20040;-62
2023/01/02 04:09:10;;;;;;;17.67;8.15;;;11.60;99.90;;;;;;5098201;28;20032;-63
2023/01/02 04:11:40;;;;;;;14.00;7.93;;;11.50;99.90;;;;;;5092820;28;20041;-61
2023/01/02 04:14:17;;;;;;;14.68;7.72;;;11.50;99.90;;;;;;5102003;28;20044;-61
2023/01/02 04:16:44;;;;;;;14.30;7.97;;;11.40;99.90;;;;;;5099945;28;20023;-61
2023/01/02 04:19:15;;;;;;;15.45;7.65;;;11.40;99.90;;;;;;5101088;28;20440;-62
2023/01/02 04:21:44;;;;;;;14.05;7.57;;;11.60;99.90;;;;;;5099840;28;20032;-61
2023/01/02 04:24:21;;;;;;;13.88;8.13;;;11.70;99.90;;;;;;5100243;28;20340;-60
2023/01/02 04:26:56;;;;;;;14.77;8.00;;;11.50;99.90;;;;;;5090212;28;20055;-63
2023/01/02 04:29:26;;;;;;;14.70;7.40;;;11.60;99.90;;;;;;5076607;28;20052;-62
2023/01/02 04:32:03;;;;;;;15.82;7.60;;;11.50;99.90;;;;;;5088207;28;20039;-64
2023/01/02 04:35:05;;;;;;;13.82;7.20;;;11.60;99.90;;;;;;5094480;28;20055;-63
2023/01/02 04:37:50;;;;;;;12.85;7.28;;;11.70;99.90;;;;;;5068158;28;20424;-63
2023/01/02 04:40:26;;;;;;;12.43;7.07;;;11.70;99.90;;;;;;5094922;28;20106;-63
2023/01/02 04:42:51;;;;;;;11.93;6.60;;;11.70;99.90;;;;;;5089715;28;20036;-63
2023/01/02 04:45:17;;;;;;;10.27;6.53;;;11.60;99.90;;;;;;5098466;28;20032;-63
2023/01/02 04:47:43;;;;;;;13.75;7.10;;;11.70;99.90;;;;;;5104326;28;20180;-62
2023/01/02 04:50:09;;;;;;;10.40;6.40;;;11.70;99.90;;;;;;5088815;28;20489;-64
2023/01/02 04:52:34;;;;;;;11.00;6.03;;;11.80;99.90;;;;;;5096278;28;20039;-62
2023/01/02 04:55:06;;;;;;;12.80;6.90;;;11.80;99.90;;;;;;5098031;28;20044;-62
2023/01/02 04:57:32;;;;;;;13.32;6.60;;;11.90;99.90;;;;;;5076394;28;20042;-63
2023/01/02 04:59:57;;;;;;;11.52;6.43;;;12.00;99.90;;;;;;5092485;28;20040;-62
2023/01/02 05:02:23;;;;;;;11.85;6.88;;;11.90;99.90;;;;;;5089656;28;20127;-62
2023/01/02 05:04:48;;;;;;;10.10;5.97;;;11.80;99.90;;;;;;5095508;28;20050;-65
2023/01/02 05:07:14;;;;;;;14.20;6.45;;;11.90;99.90;;;;;;5089908;28;20131;-63
2023/01/02 05:09:39;;;;;;;14.07;6.85;;;11.90;99.90;;;;;;5089166;28;20128;-62
2023/01/02 05:12:06;;;;;;;13.60;7.38;;;11.90;99.90;;;;;;5095247;28;20055;-62
2023/01/02 05:14:31;;;;;;;12.30;7.00;;;12.00;99.90;;;;;;5091809;28;20039;-62
2023/01/02 05:16:57;;;;;;;11.48;7.05;;;12.10;99.90;;;;;;5091107;28;20378;-63
2023/01/02 05:19:23;;;;;;;12.05;6.70;;;12.00;99.90;;;;;;5094915;28;20045;-62
2023/01/02 05:24:32;;;;;;;12.75;6.82;;;12.00;99.90;;;;;;5091988;28;20344;-61
2023/01/02 05:26:58;;;;;;;13.32;7.80;;;12.10;99.90;;;;;;5095828;28;20051;-61
2023/01/02 05:29:23;;;;;;;13.70;7.63;;;12.20;99.90;;;;;;5096213;28;20411;-61
2023/01/02 05:31:49;;;;;;;16.65;6.80;;;12.20;99.90;;;;;;5090714;28;20032;-63
2023/01/02 05:34:15;;;;;;;12.88;6.78;;;12.30;99.90;;;;;;5096634;28;20141;-63
2023/01/02 05:36:41;;;;;;;9.98;6.40;;;12.10;99.90;;;;;;5076960;28;20040;-63
2023/01/02 05:39:11;;;;;;;11.50;6.93;;;12.10;99.90;;;;;;5073334;28;20166;-64
2023/01/02 05:41:38;;;;;;;13.25;6.47;;;12.20;99.90;;;;;;5091546;28;20032;-64
2023/01/02 05:44:07;;;;;;;11.05;6.82;;;12.20;99.90;;;;;;5092590;28;20123;-62
2023/01/02 05:46:47;;;;;;;11.95;6.55;;;12.30;99.90;;;;;;5075502;28;20360;-62
2023/01/02 05:49:12;;;;;;;12.00;6.30;;;12.10;99.90;;;;;;5075627;28;20055;-62
2023/01/02 05:51:38;;;;;;;13.85;6.57;;;12.30;99.90;;;;;;5090948;28;20456;-62
2023/01/02 05:54:04;;;;;;;9.38;5.75;;;12.30;99.90;;;;;;5087793;28;20383;-62
2023/01/02 05:56:30;;;;;;;11.13;6.00;;;12.20;99.90;;;;;;5097637;28;20042;-63
2023/01/02 05:58:55;;;;;;;8.73;5.53;;;12.30;99.90;;;;;;5105002;28;20423;-62
2023/01/02 06:01:24;;;;;;;9.30;5.68;;;12.30;99.90;;;;;;5102410;28;20422;-63
2023/01/02 06:03:51;;;;;;;9.30;5.30;;;12.30;99.90;;;;;;5095871;28;20036;-62
2023/01/02 06:06:19;;;;;;;11.13;6.40;;;12.40;99.90;;;;;;5091251;28;20044;-62
2023/01/02 06:08:45;;;;;;;10.05;6.15;;;12.40;99.90;;;;;;5093460;28;20054;-63
2023/01/02 06:11:10;;;;;;;10.43;6.18;;;12.40;99.90;;;;;;5074719;28;20114;-61
2023/01/02 06:13:37;;;;;;;9.93;6.45;;;12.20;99.90;;;;;;5060279;28;20028;-61
2023/01/02 06:16:05;;;;;;;11.82;7.05;;;12.40;99.90;;;;;;5094047;28;20431;-61
2023/01/02 06:18:32;;;;;;;10.00;6.10;;;12.20;99.90;;;;;;5089723;28;20040;-63
2023/01/02 06:21:03;;;;;;;9.52;6.18;;;12.40;99.90;;;;;;5094538;28;20105;-61
2023/01/02 06:23:29;;;;;;;11.07;6.10;;;12.20;99.90;;;;;;5092051;28;20125;-63
2023/01/02 06:26:07;;;;;;;12.48;6.53;;;12.20;99.90;;;;;;5085971;28;20358;-61
2023/01/02 06:28:33;;;;;;;11.85;6.40;;;12.20;99.90;;;;;;5078876;28;20037;-61
2023/01/02 06:31:04;;;;;;;11.10;6.13;;;12.30;99.90;;;;;;5079007;28;20044;-63
2023/01/02 06:33:30;;;;;;;10.80;6.90;;;12.20;99.90;;;;;;5079651;28;20063;-61
2023/01/02 06:35:59;;;;;;;9.10;6.90;;;12.30;99.90;;;;;;5080435;28;20067;-62
2023/01/02 06:38:26;;;;;;;11.35;6.15;;;12.40;99.90;;;;;;5083056;28;20083;-62
2023/01/02 06:40:57;;;;;;;5.00;3.03;;;12.30;99.90;;;;;;5060522;28;20060;-62
2023/01/02 06:43:27;;;;;;;4.78;2.70;;;12.00;99.90;;;;;;5076125;28;20040;-61
2023/01/02 06:45:57;;;;;;;3.15;2.30;;;11.80;99.90;;;;;;5024894;28;20036;-63
2023/01/02 06:48:23;;;;;;;5.00;2.80;;;11.70;99.90;;;;;;5081938;28;20355;-60
2023/01/02 06:50:49;;;;;;;3.45;2.90;;;11.40;99.90;;;;;;5058926;28;20403;-66
2023/01/02 06:53:15;;;;;;;4.38;3.53;;;11.20;99.90;;;;;;5080512;28;20081;-65
2023/01/02 06:55:50;;;;;;;4.32;3.67;;;11.20;99.90;;;;;;5080629;28;20361;-63
2023/01/02 06:58:16;;;;;;;5.10;4.00;;;11.00;99.90;;;;;;5080462;28;20024;-63
2023/01/02 07:00:41;;;;;;;5.57;4.15;;;11.00;99.90;;;;;;5075818;28;20391;-62
2023/01/02 07:03:07;;;;;;;6.15;4.40;;;11.00;99.90;;;;;;5080158;28;20456;-64
2023/01/02 07:05:32;;;;;;;5.88;4.60;;;10.90;99.90;;;;;;5077041;28;20035;-64
2023/01/02 07:07:58;;;;;;;4.55;3.67;;;10.70;99.90;;;;;;5081600;28;20109;-64
2023/01/02 07:10:23;;;;;;;5.22;4.22;;;10.70;99.90;;;;;;5076393;28;20050;-66
2023/01/02 07:12:49;;;;;;;5.80;4.63;;;10.70;99.90;;;;;;5081720;28;20047;-65
2023/01/02 07:15:15;;;;;;;7.03;5.78;;;10.60;99.90;;;;;;5080282;28;20070;-67
2023/01/02 07:17:40;;;;;;;7.47;6.28;;;10.50;99.90;;;;;;5071633;28;20115;-65
2023/01/02 07:20:06;;;;;;;6.55;5.85;;;10.50;99.90;;;;;;5081295;28;20040;-64
2023/01/02 07:22:32;;;;;;;7.82;6.50;;;10.50;99.90;;;;;;5074017;28;20028;-66
2023/01/02 07:24:57;;;;;;;7.18;5.82;;;10.50;99.90;;;;;;5079087;28;20435;-64
2023/01/02 07:27:31;;;;;;;7.05;5.88;;;10.30;99.90;;;;;;5079792;28;20397;-63
2023/01/02 07:29:56;;;;;;;6.85;5.10;;;10.40;99.90;;;;;;5077894;28;20421;-63
2023/01/02 07:32:22;;;;;;;7.22;5.38;;;10.20;99.90;;;;;;5063751;28;20078;-64
2023/01/02 07:34:48;;;;;;;8.27;5.53;;;10.30;99.90;;;;;;5082053;28;20048;-63
2023/01/02 07:37:14;;;;;;;8.13;5.50;;;10.10;99.90;;;;;;5073649;28;20068;-65
2023/01/02 07:39:39;;;;;;;8.50;5.70;;;9.90;99.90;;;;;;5078469;28;20054;-67
2023/01/02 07:42:20;;;;;;;8.55;6.07;;;9.90;99.90;;;;;;5063279;28;20109;-65
2023/01/02 07:44:45;;;;;;;10.52;5.93;;;9.80;99.90;;;;;;5076191;28;20036;-66
2023/01/02 07:47:11;;;;;;;9.93;6.32;;;9.80;99.90;;;;;;5081049;28;20032;-65
2023/01/02 07:49:58;;;;;;;9.57;5.40;;;9.60;99.90;;;;;;5078028;28;20356;-65
2023/01/02 07:52:26;;;;;;;7.65;5.15;;;9.70;99.90;;;;;;5077829;28;20731;-65
2023/01/02 07:54:52;;;;;;;8.95;5.53;;;9.60;99.90;;;;;;5075448;28;20095;-66
2023/01/02 07:57:17;;;;;;;7.90;5.10;;;9.50;99.90;;;;;;5082165;28;20462;-64
2023/01/02 08:00:05;;;;;;;7.13;3.92;;;9.40;99.90;;;;;;5077639;28;20516;-64
2023/01/02 08:02:31;;;;;;;8.05;4.32;;;9.40;99.90;;;;;;5078108;28;20036;-62
2023/01/02 08:04:56;;;;;;;6.93;3.92;;;9.30;99.90;;;;;;5078209;28;20121;-63
2023/01/02 08:07:22;;;;;;;5.95;3.13;;;9.30;99.90;;;;;;5077702;28;20052;-62
2023/01/02 08:10:30;;;;;;;4.78;3.08;;;9.20;99.90;;;;;;5081251;28;20341;-64
2023/01/02 08:12:56;;;;;;;5.10;2.92;;;9.20;99.90;;;;;;5080666;28;20040;-63
2023/01/02 08:15:23;;;;;;;4.93;2.67;;;9.20;99.90;;;;;;5081728;28;20355;-63
2023/01/02 08:17:48;;;;;;;5.05;2.90;;;9.20;99.90;;;;;;5080713;28;20032;-64
2023/01/02 08:20:14;;;;;;;7.65;3.60;;;9.20;99.90;;;;;;5077555;28;20114;-64
2023/01/02 08:22:40;;;;;;;5.40;2.85;;;9.20;99.90;;;;;;5082557;28;20585;-61
2023/01/02 08:25:13;;;;;;;5.25;2.67;;;9.20;99.90;;;;;;5082960;28;20059;-62
2023/01/02 08:27:39;;;;;;;5.70;2.40;;;9.20;99.90;;;;;;5079029;28;20040;-64
2023/01/02 08:30:09;;;;;;;5.97;2.72;;;9.20;99.90;;;;;;5080344;28;20048;-67
2023/01/02 08:32:38;;;;;;;4.53;2.03;;;9.20;99.90;;;;;;5086571;28;20040;-64
2023/01/02 08:35:06;;;;;;;4.32;2.20;;;9.10;99.90;;;;;;5084930;28;20040;-64
2023/01/02 08:37:31;;;;;;;5.03;2.42;;;9.10;99.90;;;;;;5084257;28;20046;-64
2023/01/02 08:39:57;;;;;;;5.05;2.60;;;9.10;99.90;;;;;;5087378;28;20380;-64
2023/01/02 08:42:22;;;;;;;13.25;4.18;;;9.10;99.90;;;;;;5084563;28;20040;-63
2023/01/02 08:44:48;;;;;;;4.63;2.35;;;9.10;99.90;;;;;;5085317;28;20216;-63
2023/01/02 08:47:14;;;;;;;6.82;2.58;;;9.00;99.90;;;;;;5078321;28;20059;-63
2023/01/02 08:49:39;;;;;;;6.07;2.15;;;9.00;99.90;;;;;;5086648;28;20375;-64
2023/01/02 08:52:05;;;;;;;4.78;2.38;;;9.00;99.90;;;;;;5085346;28;20337;-63
2023/01/02 08:54:30;;;;;;;5.90;2.35;;;8.90;99.90;;;;;;5087018;28;20052;-62
2023/01/02 08:56:56;;;;;;;7.82;3.40;;;9.00;99.90;;;;;;5083701;28;20097;-63
2023/01/02 08:59:24;;;;;;;6.07;3.00;;;8.90;99.90;;;;;;5079854;28;20782;-62
2023/01/02 09:01:50;;;;;;;10.10;4.55;;;9.10;99.90;;;;;;5081445;28;20024;-64
2023/01/02 09:04:16;;;;;;;11.88;4.70;;;9.00;99.90;;;;;;5083242;28;20047;-64
2023/01/02 09:06:42;;;;;;;13.25;5.53;;;9.10;99.90;;;;;;5083439;28;20037;-63
2023/01/02 09:09:09;;;;;;;10.75;4.38;;;9.00;99.90;;;;;;5085555;28;20039;-65
2023/01/02 09:11:36;;;;;;;6.45;3.40;;;9.00;99.90;;;;;;5082829;28;20037;-62
2023/01/02 09:14:03;;;;;;;8.02;3.30;;;9.00;99.90;;;;;;5083654;28;20080;-63
2023/01/02 09:16:29;;;;;;;7.93;4.15;;;8.90;99.90;;;;;;5078687;28;20028;-64
2023/01/02 09:19:04;;;;;;;10.38;3.47;;;9.10;99.90;;;;;;5082719;28;20373;-63
2023/01/02 09:21:30;;;;;;;7.28;3.50;;;8.90;99.90;;;;;;5086839;28;20039;-65
2023/01/02 09:23:55;;;;;;;7.38;2.72;;;9.00;99.90;;;;;;5080240;28;20127;-65
2023/01/02 09:26:22;;;;;;;6.78;2.42;;;8.90;99.90;;;;;;5086359;28;20410;-63
2023/01/02 09:28:54;;;;;;;5.25;2.95;;;9.00;99.90;;;;;;5092644;28;20040;-63
2023/01/02 09:31:20;;;;;;;8.27;3.40;;;9.00;99.90;;;;;;5095326;28;20096;-62
2023/01/02 09:33:46;;;;;;;9.68;4.53;;;9.00;99.90;;;;;;5102883;28;20031;-64
2023/01/02 09:36:17;;;;;;;6.10;2.55;;;8.90;99.90;;;;;;5094303;28;20043;-63
2023/01/02 09:38:43;;;;;;;5.22;2.15;;;9.00;99.90;;;;;;5098484;28;20062;-63
2023/01/02 09:41:24;;;;;;;4.07;2.45;;;9.00;99.90;;;;;;5094339;28;20101;-64
2023/01/02 09:44:06;;;;;;;5.18;2.42;;;9.10;99.90;;;;;;5097467;28;20455;-64
2023/01/02 09:46:59;;;;;;;5.43;2.40;;;9.10;99.90;;;;;;5091504;28;20055;-63
2023/01/02 09:49:30;;;;;;;5.63;2.50;;;9.10;99.90;;;;;;5090712;28;20056;-64
2023/01/02 09:51:56;;;;;;;4.05;2.05;;;9.20;99.90;;;;;;5088086;28;20047;-63
2023/01/02 09:54:26;;;;;;;4.05;2.20;;;9.10;99.90;;;;;;5102032;28;20335;-63
2023/01/02 09:57:10;;;;;;;4.75;2.50;;;9.20;99.90;;;;;;5097157;28;20187;-63
2023/01/02 09:59:48;;;;;;;6.40;3.30;;;9.20;99.90;;;;;;5086378;28;20052;-64
2023/01/02 10:02:19;;;;;;;5.05;3.08;;;9.20;99.90;;;;;;5095111;28;20063;-63
2023/01/02 10:04:57;;;;;;;4.60;2.80;;;9.30;99.90;;;;;;5096883;28;20111;-63
2023/01/02 10:07:51;;;;;;;5.93;3.38;;;9.40;99.90;;;;;;5088780;28;20090;-65
2023/01/02 10:10:33;;;;;;;9.35;4.53;;;9.50;99.90;;;;;;5073186;28;20040;-65
2023/01/02 10:13:24;;;;;;;10.18;4.35;;;9.40;99.90;;;;;;5086536;28;20050;-62
2023/01/02 10:15:52;;;;;;;5.07;3.10;;;9.50;99.90;;;;;;5086876;28;20036;-63
2023/01/02 10:18:39;;;;;;;2.67;1.73;;;9.40;99.90;;;;;;5086685;28;20036;-63
2023/01/02 10:21:13;;;;;;;3.80;2.42;;;9.40;99.90;;;;;;5088312;28;20051;-66
2023/01/02 10:23:43;;;;;;;4.90;3.20;;;9.40;99.90;;;;;;5088921;28;20464;-63
2023/01/02 10:26:27;;;;;;;8.48;3.90;;;9.40;99.90;;;;;;5070504;28;20060;-66
2023/01/02 10:29:03;;;;;;;5.90;3.45;;;9.30;99.90;;;;;;5083549;28;20086;-66
2023/01/02 10:32:04;;;;;;;9.30;4.25;;;9.30;99.90;;;;;;5087438;28;20484;-65
2023/01/02 10:34:40;;;;;;;7.72;3.58;;;9.40;99.90;;;;;;5098289;28;20130;-63
2023/01/02 10:37:12;;;;;;;9.75;4.05;;;9.30;99.90;;;;;;5091197;28;20067;-63
2023/01/02 10:39:40;;;;;;;11.95;4.85;;;9.30;99.90;;;;;;5086677;28;20074;-65
2023/01/02 10:42:08;;;;;;;12.65;4.22;;;9.40;99.90;;;;;;5094043;28;20127;-64
2023/01/02 10:44:37;;;;;;;9.70;4.97;;;9.40;99.90;;;;;;5090427;28;20211;-65
2023/01/02 10:47:26;;;;;;;14.02;7.80;;;9.30;99.90;;;;;;5095862;28;20040;-63
2023/01/02 10:49:52;;;;;;;13.25;8.30;;;9.50;99.90;;;;;;5073637;28;20041;-64
2023/01/02 10:52:26;;;;;;;15.98;8.07;;;9.40;99.90;;;;;;5085614;28;20093;-64
2023/01/02 10:54:54;;;;;;;11.93;7.55;;;9.40;99.90;;;;;;5087554;28;20066;-65
2023/01/02 10:57:38;;;;;;;10.27;5.88;;;9.40;99.90;;;;;;5089725;28;20028;-63
2023/01/02 11:00:07;;;;;;;;;;;9.50;99.90;;;;;;5087202;28;20064;-64
2023/01/02 11:02:38;;;;;;;9.15;4.78;;;9.50;99.90;;;;;;5087852;28;19958;-64
2023/01/02 11:05:16;;;;;;;9.73;4.72;;;9.50;99.90;;;;;;5103888;28;20040;-65
2023/01/02 11:07:46;;;;;;;7.32;3.65;;;9.50;99.90;;;;;;5087404;28;20443;-63
2023/01/02 11:10:32;;;;;;;7.55;3.75;;;9.60;99.90;;;;;;5098364;28;20032;-63
2023/01/02 11:13:12;;;;;;;7.82;3.13;;;9.50;99.90;;;;;;5084317;28;20174;-63
2023/01/02 11:16:09;;;;;;;9.77;3.03;;;9.60;99.90;;;;;;5063179;28;20119;-63
2023/01/02 11:18:35;;;;;;;10.05;4.90;;;9.50;99.90;;;;;;5077929;28;20040;-63
2023/01/02 11:21:04;;;;;;;8.20;2.70;;;9.60;99.90;;;;;;5089571;28;20051;-63
2023/01/02 11:23:39;;;;;;;11.75;3.10;;;9.60;99.90;;;;;;5090649;28;20359;-63
2023/01/02 11:26:22;;;;;;;7.03;2.13;;;9.50;99.90;;;;;;5071326;28;20052;-62
2023/01/02 11:28:52;;;;;;;6.18;2.10;;;9.60;99.90;;;;;;5072968;28;20452;-63
2023/01/02 11:31:19;;;;;;;8.68;2.28;;;9.60;99.90;;;;;;5045038;28;20045;-63
2023/01/02 11:33:46;;;;;;;5.80;2.25;;;9.50;99.90;;;;;;5066830;28;20099;-64
2023/01/02 11:36:11;;;;;;;7.75;2.58;;;9.50;99.90;;;;;;5067578;28;20032;-62
2023/01/02 11:38:55;;;;;;;10.55;2.40;;;9.60;99.90;;;;;;5067329;28;20037;-63
2023/01/02 11:43:47;;;;;;;6.83;2.27;;;9.60;99.90;;;;;;5059953;28;20041;-63
2023/01/02 11:44:21;;;;;;;9.38;2.22;;;9.50;99.90;;;;;;5068538;28;20465;-63
2023/01/02 11:46:48;;;;;;;5.32;2.00;;;9.50;99.90;;;;;;5068599;28;20040;-63
2023/01/02 11:49:19;;;;;;;7.95;1.95;;;9.50;99.90;;;;;;5054341;28;20072;-63
2023/01/02 11:51:53;;;;;;;7.47;2.00;;;9.50;99.90;;;;;;5069507;28;20036;-62
2023/01/02 11:54:24;;;;;;;6.72;2.30;;;9.60;99.90;;;;;;5060371;28;20426;-64
2023/01/02 11:56:50;;;;;;;7.85;2.17;;;9.60;99.90;;;;;;5068677;28;20076;-63
2023/01/02 11:59:34;;;;;;;10.90;3.15;;;9.70;99.90;;;;;;5073578;28;20052;-62
2023/01/02 12:02:17;;;;;;;7.90;3.10;;;9.70;99.90;;;;;;5064991;28;20508;-63
2023/01/02 12:04:43;;;;;;;9.52;2.72;;;9.70;99.90;;;;;;5072194;28;20099;-64
2023/01/02 12:07:37;;;;;;;8.45;2.50;;;9.70;99.90;;;;;;5071200;28;20072;-64
2023/01/02 12:10:28;;;;;;;7.57;2.08;;;9.60;99.90;;;;;;5069845;28;20468;-64
2023/01/02 12:13:16;;;;;;;10.48;2.13;;;9.80;99.90;;;;;;5067056;28;20040;-63
2023/01/02 12:16:07;;;;;;;7.88;1.95;;;9.70;99.90;;;;;;5063335;28;20359;-62
2023/01/02 12:18:54;;;;;;;6.00;2.00;;;9.70;99.90;;;;;;5064496;28;20056;-64
2023/01/02 12:21:58;;;;;;;5.70;2.00;;;9.70;99.90;;;;;;5064938;28;20032;-64
2023/01/02 12:24:59;;;;;;;10.18;2.15;;;9.80;99.90;;;;;;4972966;28;20070;-65
2023/01/02 12:27:46;;;;;;;9.57;2.10;;;9.80;99.90;;;;;;4981483;28;20053;-65
2023/01/02 12:30:20;;;;;;;10.52;2.35;;;9.70;99.90;;;;;;4969583;28;20420;-65
2023/01/02 12:33:19;;;;;;;9.40;2.47;;;9.70;99.90;;;;;;4979903;28;20487;-65
2023/01/02 12:36:22;;;;;;;12.50;2.65;;;9.80;99.90;;;;;;5028055;28;20047;-63
2023/01/02 12:39:09;;;;;;;9.20;2.58;;;9.90;99.90;;;;;;5064399;28;20361;-63
2023/01/02 12:41:50;;;;;;;9.60;2.30;;;9.90;99.90;;;;;;5070483;28;20044;-62
2023/01/02 12:44:36;;;;;;;8.85;2.00;;;9.80;99.90;;;;;;5070716;28;20364;-63
2023/01/02 12:47:01;;;;;;;7.00;1.92;;;9.80;99.90;;;;;;5067089;28;20033;-62
2023/01/02 12:49:35;;;;;;;9.73;2.10;;;9.90;99.90;;;;;;5075749;28;20045;-62
2023/01/02 12:52:19;;;;;;;12.07;2.53;;;9.80;99.90;;;;;;5066451;28;20044;-63
2023/01/02 12:55:04;;;;;;;7.65;2.30;;;9.80;99.90;;;;;;5073979;28;20496;-64
2023/01/02 12:57:55;;;;;;;10.10;2.50;;;9.90;99.90;;;;;;5072642;28;20400;-65
2023/01/02 13:00:44;;;;;;;8.75;2.28;;;9.80;99.90;;;;;;5068933;28;20408;-63
2023/01/02 13:03:31;;;;;;;9.60;2.25;;;9.80;99.90;;;;;;5071447;28;20044;-64
2023/01/02 13:06:05;;;;;;;9.90;2.50;;;9.90;99.90;;;;;;5083192;28;20139;-63
2023/01/02 13:08:58;;;;;;;10.80;2.85;;;9.90;99.90;;;;;;5081279;28;20036;-63
2023/01/02 13:11:42;;;;;;;9.82;2.53;;;9.90;99.90;;;;;;5035527;28;20144;-63
2023/01/02 13:14:15;;;;;;;13.75;3.17;;;9.90;99.90;;;;;;5075859;28;20041;-64
2023/01/02 13:16:44;;;;;;;9.98;2.53;;;9.90;99.90;;;;;;5068016;28;20227;-62